Terminal Aerodrome Forecast
Issued by NWS

Home | Current Version | Previous Version | Text Only | Print | Product List | Glossary On
Versions: 1 2 3 4 5 6 7 8 9 10 11 12 13 14 15
000
FTUS43 KFGF 231203 AAA
TAFBJI
TAF AMD
KBJI 231203Z 2312/2412 28003KT P6SM FEW250
      TEMPO 2312/2313 1/2SM FG VV004
     FM231700 35004KT P6SM SCT200
     FM232200 02005KT P6SM BKN110=

USA.gov is the U.S. government's official web portal to all federal, state and local government web resources and services.